createdAt,value
2018-07-30T00:01:44.609Z,1.70
2018-07-30T00:04:12.484Z,1.60
2018-07-30T00:06:40.130Z,1.70
2018-07-30T00:09:08.604Z,1.63
2018-07-30T00:11:36.432Z,1.27
2018-07-30T00:14:04.156Z,1.47
2018-07-30T00:16:31.800Z,1.50
2018-07-30T00:18:59.498Z,1.50
2018-07-30T00:21:27.455Z,1.37
2018-07-30T00:23:55.160Z,1.63
2018-07-30T00:26:22.864Z,1.47
2018-07-30T00:28:50.724Z,1.40
2018-07-30T00:31:18.508Z,1.70
2018-07-30T00:33:46.117Z,1.40
2018-07-30T00:36:16.149Z,1.60
2018-07-30T00:38:43.784Z,1.40
2018-07-30T00:41:11.558Z,1.70
2018-07-30T00:43:39.200Z,1.67
2018-07-30T00:46:07.246Z,1.50
2018-07-30T00:48:34.872Z,1.63
2018-07-30T00:51:02.532Z,1.27
2018-07-30T00:53:30.757Z,1.60
2018-07-30T00:55:58.401Z,1.60
2018-07-30T00:58:25.977Z,1.53
2018-07-30T01:00:53.920Z,1.53
2018-07-30T01:03:21.549Z,1.30
2018-07-30T01:05:49.117Z,1.30
2018-07-30T01:08:17.076Z,1.50
2018-07-30T01:10:44.758Z,1.50
2018-07-30T01:13:12.364Z,1.30
2018-07-30T01:15:40.211Z,1.50
2018-07-30T01:18:07.880Z,1.30
2018-07-30T01:20:36.017Z,1.20
2018-07-30T01:23:03.816Z,1.60
2018-07-30T01:25:31.440Z,1.50
2018-07-30T01:27:59.344Z,1.43
2018-07-30T01:30:27.413Z,1.60
2018-07-30T01:32:55.083Z,1.73
2018-07-30T01:35:22.721Z,1.50
2018-07-30T01:37:50.883Z,1.27
2018-07-30T01:40:18.500Z,1.60
2018-07-30T01:42:46.151Z,1.50
2018-07-30T01:45:13.951Z,1.50
2018-07-30T01:47:41.535Z,1.40
2018-07-30T01:50:09.141Z,1.40
2018-07-30T01:52:36.900Z,1.70
2018-07-30T01:55:04.528Z,1.80
2018-07-30T01:57:32.157Z,1.53
2018-07-30T02:00:00.152Z,1.60
2018-07-30T02:02:27.978Z,1.67
2018-07-30T02:04:58.308Z,1.60
2018-07-30T02:07:26.413Z,1.30
2018-07-30T02:09:54.419Z,1.57
2018-07-30T02:12:22.180Z,1.53
2018-07-30T02:14:50.022Z,1.30
2018-07-30T02:17:17.674Z,1.53
2018-07-30T02:19:45.254Z,1.80
2018-07-30T02:22:12.917Z,1.80
2018-07-30T02:24:40.715Z,1.60
2018-07-30T02:27:08.297Z,1.60
2018-07-30T02:29:35.952Z,1.60
2018-07-30T02:32:03.914Z,1.73
2018-07-30T02:34:31.537Z,2.10
2018-07-30T02:36:59.294Z,2.00
2018-07-30T02:39:26.957Z,1.60
2018-07-30T02:41:54.686Z,1.50
2018-07-30T02:44:24.469Z,1.67
2018-07-30T02:46:52.110Z,1.70
2018-07-30T02:49:20.095Z,2.00
2018-07-30T02:51:47.745Z,1.60
2018-07-30T02:54:15.331Z,1.50
2018-07-30T02:56:42.993Z,1.60
2018-07-30T02:59:10.375Z,1.70
2018-07-30T03:01:38.061Z,1.83
2018-07-30T03:04:05.928Z,1.90
2018-07-30T03:06:33.580Z,1.53
2018-07-30T03:09:01.225Z,1.47
2018-07-30T03:11:28.905Z,1.53
2018-07-30T03:13:56.523Z,1.80
2018-07-30T03:16:24.088Z,1.60
2018-07-30T03:18:51.861Z,1.67
2018-07-30T03:21:19.481Z,1.40
2018-07-30T03:23:47.139Z,1.70
2018-07-30T03:26:14.917Z,1.80
2018-07-30T03:28:42.493Z,1.87
2018-07-30T03:31:10.477Z,1.80
2018-07-30T03:33:38.133Z,1.93
2018-07-30T03:36:06.065Z,1.83
2018-07-30T03:38:33.689Z,1.87
2018-07-30T03:41:01.542Z,1.70
2018-07-30T03:43:29.149Z,1.60
2018-07-30T03:45:56.749Z,1.73
2018-07-30T03:48:24.969Z,2.00
2018-07-30T03:50:52.673Z,2.07
2018-07-30T03:53:20.616Z,1.80
2018-07-30T03:55:48.897Z,2.00
2018-07-30T03:58:16.777Z,1.87
2018-07-30T04:00:44.434Z,2.07
2018-07-30T04:03:12.331Z,1.90
2018-07-30T04:05:40.235Z,1.67
2018-07-30T04:08:07.837Z,1.80
2018-07-30T04:10:35.526Z,2.10
2018-07-30T04:13:03.133Z,1.67
2018-07-30T04:15:30.806Z,1.67
2018-07-30T04:17:58.819Z,1.70
2018-07-30T04:20:26.413Z,1.63
2018-07-30T04:22:54.050Z,1.57
2018-07-30T04:25:22.022Z,1.80
2018-07-30T04:27:49.705Z,1.93
2018-07-30T04:30:17.648Z,1.93
2018-07-30T04:32:45.409Z,1.70
2018-07-30T04:35:12.985Z,2.10
2018-07-30T04:37:40.605Z,1.90
2018-07-30T04:40:08.298Z,1.70
2018-07-30T04:42:35.924Z,1.83
2018-07-30T04:45:03.592Z,2.17
2018-07-30T04:47:31.271Z,2.03
2018-07-30T04:49:58.915Z,1.80
2018-07-30T04:52:26.738Z,1.90
2018-07-30T04:54:54.416Z,1.70
2018-07-30T04:57:22.044Z,1.73
2018-07-30T04:59:49.846Z,1.67
2018-07-30T05:02:17.855Z,2.00
2018-07-30T05:04:45.572Z,1.93
2018-07-30T05:07:13.249Z,1.90
2018-07-30T05:09:40.978Z,2.03
2018-07-30T05:12:08.589Z,2.13
2018-07-30T05:14:36.302Z,1.97
2018-07-30T05:17:04.074Z,1.73
2018-07-30T05:19:31.744Z,1.90
2018-07-30T05:21:59.462Z,1.70
2018-07-30T05:24:27.472Z,1.97
2018-07-30T05:26:55.358Z,2.00
2018-07-30T05:29:23.017Z,1.77
2018-07-30T05:31:50.876Z,1.90
2018-07-30T05:34:18.559Z,2.27
2018-07-30T05:36:46.237Z,1.90
2018-07-30T05:39:14.093Z,1.90
2018-07-30T05:41:41.786Z,1.77
2018-07-30T05:44:09.718Z,2.10
2018-07-30T05:46:37.356Z,2.13
2018-07-30T05:49:05.044Z,1.67
2018-07-30T05:51:32.682Z,1.60
2018-07-30T05:54:00.414Z,1.73
2018-07-30T05:56:28.009Z,1.90
2018-07-30T05:58:55.966Z,1.70
2018-07-30T06:01:23.570Z,2.00
2018-07-30T06:03:51.247Z,2.10
2018-07-30T06:06:19.062Z,1.90
2018-07-30T06:08:46.477Z,1.80
2018-07-30T06:11:14.077Z,2.40
2018-07-30T06:13:41.941Z,2.00
2018-07-30T06:16:09.611Z,1.80
2018-07-30T06:18:37.219Z,2.20
2018-07-30T06:21:04.977Z,2.10
2018-07-30T06:23:32.513Z,2.10
2018-07-30T06:26:00.131Z,2.30
2018-07-30T06:28:28.070Z,1.83
2018-07-30T06:30:55.672Z,2.33
2018-07-30T06:33:23.292Z,2.30
2018-07-30T06:35:51.170Z,2.10
2018-07-30T06:38:18.842Z,1.87
2018-07-30T06:40:46.515Z,2.60
2018-07-30T06:43:14.185Z,2.20
2018-07-30T06:45:41.773Z,2.23
2018-07-30T06:48:09.458Z,2.33
2018-07-30T06:50:37.084Z,1.93
2018-07-30T06:53:04.742Z,2.20
2018-07-30T06:55:32.598Z,2.20
2018-07-30T06:58:00.487Z,2.07
2018-07-30T07:00:28.076Z,1.77
2018-07-30T07:02:55.600Z,2.27
2018-07-30T07:05:23.258Z,1.63
2018-07-30T07:07:50.800Z,1.90
2018-07-30T07:10:18.408Z,1.83
2018-07-30T07:12:46.162Z,2.20
2018-07-30T07:15:20.583Z,1.87
2018-07-30T07:17:48.261Z,2.10
2018-07-30T07:20:15.836Z,2.03
2018-07-30T07:22:43.685Z,2.10
2018-07-30T07:25:11.293Z,2.00
2018-07-30T07:27:38.889Z,2.30
2018-07-30T07:30:08.317Z,2.30
2018-07-30T07:32:35.925Z,2.03
2018-07-30T07:35:03.951Z,2.13
2018-07-30T07:37:31.809Z,2.23
2018-07-30T07:39:59.360Z,2.23
2018-07-30T07:42:27.057Z,2.10
2018-07-30T07:44:55.037Z,2.60
2018-07-30T07:47:22.593Z,2.40
2018-07-30T07:49:50.188Z,2.27
2018-07-30T07:52:18.062Z,2.43
2018-07-30T07:54:45.692Z,2.40
2018-07-30T07:57:13.262Z,2.30
2018-07-30T07:59:40.957Z,2.33
2018-07-30T08:02:08.627Z,2.60
2018-07-30T08:04:36.480Z,2.47
2018-07-30T08:07:04.215Z,2.43
2018-07-30T08:09:31.861Z,2.27
2018-07-30T08:11:59.697Z,2.60
2018-07-30T08:14:28.028Z,2.13
2018-07-30T08:16:55.612Z,2.50
2018-07-30T08:19:23.201Z,2.50
2018-07-30T08:21:50.835Z,2.40
2018-07-30T08:24:18.449Z,2.30
2018-07-30T08:26:46.105Z,2.23
2018-07-30T08:29:13.945Z,2.10
2018-07-30T08:31:41.531Z,2.10
2018-07-30T08:34:09.193Z,2.10
2018-07-30T08:36:37.073Z,2.00
2018-07-30T08:39:08.771Z,2.23
2018-07-30T08:41:36.722Z,2.13
2018-07-30T08:44:04.381Z,2.40
2018-07-30T08:46:32.546Z,2.40
2018-07-30T08:49:00.429Z,2.60
2018-07-30T08:51:28.063Z,2.40
2018-07-30T08:53:55.913Z,1.90
2018-07-30T08:56:23.804Z,2.57
2018-07-30T08:58:51.541Z,2.37
2018-07-30T09:01:19.144Z,2.47
2018-07-30T09:03:46.976Z,2.00
2018-07-30T09:06:14.636Z,2.20
2018-07-30T09:08:42.224Z,2.00
2018-07-30T09:11:10.041Z,1.90
2018-07-30T09:13:37.817Z,1.97
2018-07-30T09:16:05.637Z,2.00
2018-07-30T09:18:33.242Z,1.80
2018-07-30T09:21:00.846Z,1.80
2018-07-30T09:23:28.884Z,1.60
2018-07-30T09:25:56.516Z,2.10
2018-07-30T09:28:24.091Z,1.80
2018-07-30T09:30:51.832Z,1.77
2018-07-30T09:33:19.500Z,1.87
2018-07-30T09:35:47.442Z,1.70
2018-07-30T09:38:15.063Z,1.73
2018-07-30T09:40:42.694Z,1.80
2018-07-30T09:43:10.629Z,1.80
2018-07-30T09:45:38.210Z,1.80
2018-07-30T09:48:05.984Z,1.60
2018-07-30T09:50:34.061Z,1.53
2018-07-30T09:53:04.729Z,1.70
2018-07-30T09:55:32.362Z,1.43
2018-07-30T09:58:00.353Z,1.70
2018-07-30T10:00:33.994Z,1.67
2018-07-30T10:03:02.257Z,1.50
2018-07-30T10:05:29.853Z,1.57
2018-07-30T10:07:57.861Z,1.50
2018-07-30T10:10:25.513Z,1.43
2018-07-30T10:12:53.172Z,1.80
2018-07-30T10:15:20.537Z,1.90
2018-07-30T10:17:48.359Z,1.63
2018-07-30T10:20:16.105Z,1.43
2018-07-30T10:22:43.716Z,1.70
2018-07-30T10:25:11.997Z,1.73
2018-07-30T10:27:39.645Z,1.50
2018-07-30T10:30:07.789Z,1.63
2018-07-30T10:32:35.437Z,1.57
2018-07-30T10:35:03.120Z,1.70
2018-07-30T10:37:30.787Z,1.80
2018-07-30T10:39:58.495Z,1.90
2018-07-30T10:42:27.011Z,2.00
2018-07-30T10:44:54.640Z,1.87
2018-07-30T10:47:22.266Z,1.83
2018-07-30T10:49:50.147Z,2.20
2018-07-30T10:52:17.754Z,1.70
2018-07-30T10:54:45.524Z,1.93
2018-07-30T10:57:13.360Z,1.90
2018-07-30T10:59:41.100Z,2.20
2018-07-30T11:02:08.660Z,1.93
2018-07-30T11:04:38.924Z,2.20
2018-07-30T11:07:06.733Z,1.97
2018-07-30T11:09:34.414Z,2.33
2018-07-30T11:12:02.841Z,2.23
2018-07-30T11:14:30.552Z,2.10
2018-07-30T11:19:33.198Z,2.20
2018-07-30T11:22:00.831Z,2.40
2018-07-30T11:24:28.430Z,2.23
2018-07-30T11:26:56.045Z,2.70
2018-07-30T11:29:23.746Z,2.13
2018-07-30T11:31:51.309Z,2.23
2018-07-30T11:34:18.948Z,2.30
2018-07-30T11:36:47.025Z,2.13
2018-07-30T11:39:14.705Z,2.13
2018-07-30T11:41:42.345Z,2.30
2018-07-30T11:44:10.062Z,2.10
2018-07-30T11:46:37.953Z,2.20
2018-07-30T11:49:05.614Z,2.30
2018-07-30T11:51:33.324Z,2.33
2018-07-30T11:54:01.471Z,2.23
2018-07-30T11:56:29.348Z,2.33
2018-07-30T11:58:56.955Z,2.27
2018-07-30T12:01:25.429Z,2.23
2018-07-30T12:03:53.802Z,2.10
2018-07-30T12:06:22.021Z,2.40
2018-07-30T12:08:49.944Z,2.20
2018-07-30T12:11:17.849Z,2.27
2018-07-30T12:13:45.612Z,2.43
2018-07-30T12:16:12.962Z,2.23
2018-07-30T12:18:40.600Z,2.20
2018-07-30T12:21:08.304Z,2.30
2018-07-30T12:23:36.082Z,2.07
2018-07-30T12:26:03.764Z,2.73
2018-07-30T12:28:31.369Z,2.50
2018-07-30T12:30:59.107Z,2.57
2018-07-30T12:33:26.777Z,2.27
2018-07-30T12:35:54.824Z,2.30
2018-07-30T12:38:22.430Z,2.67
2018-07-30T12:40:50.113Z,2.47
2018-07-30T12:43:17.762Z,2.40
2018-07-30T12:45:46.640Z,2.37
2018-07-30T12:48:14.713Z,2.13
2018-07-30T12:50:42.340Z,2.07
2018-07-30T12:53:10.180Z,2.60
2018-07-30T12:55:38.017Z,2.80
2018-07-30T12:58:06.155Z,2.03
2018-07-30T13:00:33.956Z,2.20
2018-07-30T13:03:01.921Z,2.20
2018-07-30T13:05:29.488Z,2.30
2018-07-30T13:07:57.240Z,2.20
2018-07-30T13:10:24.828Z,2.40
2018-07-30T13:12:52.656Z,2.10
2018-07-30T13:15:20.381Z,2.30
2018-07-30T13:17:48.642Z,2.27
2018-07-30T13:20:16.273Z,2.13
2018-07-30T13:22:44.372Z,2.17
2018-07-30T13:25:11.945Z,2.03
2018-07-30T13:27:39.556Z,2.20
2018-07-30T13:30:08.481Z,2.40
2018-07-30T13:32:36.323Z,2.00
2018-07-30T13:35:04.857Z,2.23
2018-07-30T13:37:32.700Z,2.00
2018-07-30T13:40:00.375Z,2.30
2018-07-30T13:42:28.094Z,2.13
2018-07-30T13:44:56.117Z,2.17
2018-07-30T13:47:23.764Z,2.00
2018-07-30T13:49:51.679Z,2.20
2018-07-30T13:52:19.727Z,2.20
2018-07-30T13:54:47.391Z,2.27
2018-07-30T13:57:15.046Z,2.40
2018-07-30T13:59:42.749Z,2.00
2018-07-30T14:02:10.330Z,2.13
2018-07-30T14:04:37.908Z,2.40
2018-07-30T14:07:05.727Z,2.07
2018-07-30T14:09:33.415Z,2.47
2018-07-30T14:12:01.061Z,2.20
2018-07-30T14:14:28.732Z,2.50
2018-07-30T14:16:56.468Z,2.40
2018-07-30T14:19:24.645Z,2.43
2018-07-30T14:21:52.469Z,2.10
2018-07-30T14:24:20.128Z,2.07
2018-07-30T14:26:47.798Z,2.47
2018-07-30T14:29:16.312Z,2.23
2018-07-30T14:31:44.298Z,2.17
2018-07-30T14:34:12.138Z,2.37
2018-07-30T14:36:39.848Z,2.23
2018-07-30T14:39:09.024Z,2.23
2018-07-30T14:41:37.061Z,2.10
2018-07-30T14:44:04.861Z,2.90
2018-07-30T14:46:32.849Z,2.33
2018-07-30T14:49:00.618Z,2.40
2018-07-30T14:51:29.329Z,2.80
2018-07-30T14:53:58.023Z,2.17
2018-07-30T14:56:25.904Z,2.00
2018-07-30T14:58:53.632Z,2.47
2018-07-30T15:01:21.319Z,2.47
2018-07-30T15:03:48.964Z,2.40
2018-07-30T15:06:16.874Z,2.30
2018-07-30T15:08:44.602Z,2.40
2018-07-30T15:11:12.313Z,2.37
2018-07-30T15:13:40.219Z,2.77
2018-07-30T15:16:07.828Z,2.70
2018-07-30T15:18:35.444Z,2.57
2018-07-30T15:21:03.716Z,2.40
2018-07-30T15:23:31.344Z,2.20
2018-07-30T15:25:59.142Z,3.00
2018-07-30T15:47:58.377Z,2.40
2018-07-30T15:50:25.984Z,1.63
2018-07-30T15:52:53.626Z,2.00
2018-07-30T16:05:07.549Z,2.13
2018-07-30T16:07:35.188Z,1.83
2018-07-30T16:12:30.762Z,2.47
2018-07-30T16:14:59.424Z,2.37
2018-07-30T16:17:27.107Z,2.53
2018-07-30T16:19:54.789Z,2.40
2018-07-30T16:22:22.447Z,2.47
2018-07-30T16:24:50.390Z,2.30
2018-07-30T16:27:18.034Z,2.47
2018-07-30T16:29:45.666Z,2.83
2018-07-30T16:32:13.312Z,2.83
2018-07-30T16:34:40.941Z,2.33
2018-07-30T16:37:08.590Z,2.30
2018-07-30T16:39:36.401Z,2.90
2018-07-30T16:42:04.337Z,2.40
2018-07-30T16:44:32.219Z,2.40
2018-07-30T16:46:59.928Z,2.40
2018-07-30T16:49:27.594Z,2.33
2018-07-30T16:51:55.320Z,2.33
2018-07-30T16:54:23.002Z,2.57
2018-07-30T16:56:50.624Z,2.43
2018-07-30T16:59:18.254Z,2.57
2018-07-30T17:01:47.026Z,2.20
2018-07-30T17:04:14.637Z,2.20
2018-07-30T17:06:42.341Z,2.27
2018-07-30T17:09:41.863Z,2.70
2018-07-30T17:12:10.000Z,2.07
2018-07-30T17:14:37.805Z,2.10
2018-07-30T17:17:05.788Z,2.17
2018-07-30T17:19:33.434Z,2.03
2018-07-30T17:22:01.440Z,2.10
2018-07-30T17:24:29.519Z,2.10
2018-07-30T17:26:57.140Z,2.50
2018-07-30T17:29:24.856Z,2.37
2018-07-30T17:31:52.823Z,2.20
2018-07-30T17:34:20.506Z,2.20
2018-07-30T17:36:48.174Z,3.03
2018-07-30T17:39:15.944Z,2.30
2018-07-30T17:41:43.615Z,2.27
2018-07-30T17:44:11.306Z,2.27
2018-07-30T17:46:38.914Z,2.13
2018-07-30T17:49:06.641Z,2.33
2018-07-30T17:51:34.505Z,1.93
2018-07-30T17:54:02.173Z,2.17
2018-07-30T17:56:31.712Z,2.27
2018-07-30T17:59:00.928Z,2.17
2018-07-30T18:01:28.580Z,2.17
2018-07-30T18:03:56.208Z,2.17
2018-07-30T18:06:24.003Z,2.70
2018-07-30T18:08:51.806Z,2.53
2018-07-30T18:11:19.834Z,2.50
2018-07-30T18:13:47.455Z,2.90
2018-07-30T18:16:15.117Z,2.60
2018-07-30T18:18:43.161Z,2.27
2018-07-30T18:21:10.823Z,2.17
2018-07-30T18:23:38.755Z,2.33
2018-07-30T18:26:07.047Z,1.93
2018-07-30T18:30:54.336Z,2.20
2018-07-30T18:33:22.147Z,2.17
2018-07-30T18:35:49.845Z,1.83
2018-07-30T18:38:17.773Z,2.47
2018-07-30T18:40:45.469Z,2.07
2018-07-30T18:43:13.040Z,2.00
2018-07-30T18:45:41.071Z,2.00
2018-07-30T18:48:08.731Z,2.00
2018-07-30T18:50:36.204Z,2.03
2018-07-30T18:53:03.901Z,2.00
2018-07-30T18:55:31.490Z,2.07
2018-07-30T18:57:59.116Z,2.00
2018-07-30T19:00:26.876Z,2.13
2018-07-30T19:02:54.599Z,2.30
2018-07-30T19:05:22.349Z,2.27
2018-07-30T19:07:50.404Z,2.03
2018-07-30T19:10:18.036Z,2.37
2018-07-30T19:12:45.717Z,2.00
2018-07-30T19:15:13.399Z,2.20
2018-07-30T19:17:41.056Z,2.07
2018-07-30T19:20:08.754Z,2.30
2018-07-30T19:22:36.440Z,2.13
2018-07-30T19:25:04.433Z,2.00
2018-07-30T19:27:32.143Z,2.53
2018-07-30T19:30:00.310Z,2.50
2018-07-30T19:32:28.054Z,2.40
2018-07-30T19:34:55.658Z,2.53
2018-07-30T19:37:23.376Z,2.17
2018-07-30T19:39:50.986Z,1.97
2018-07-30T19:42:20.080Z,2.10
2018-07-30T19:44:47.693Z,2.27
2018-07-30T19:47:15.279Z,2.50
2018-07-30T19:49:43.200Z,1.97
2018-07-30T19:52:10.940Z,2.10
2018-07-30T19:54:38.615Z,2.60
2018-07-30T19:57:06.488Z,2.13
2018-07-30T19:59:34.183Z,2.30
2018-07-30T20:02:02.345Z,2.03
2018-07-30T20:04:30.072Z,2.50
2018-07-30T20:06:57.844Z,2.00
2018-07-30T20:09:25.452Z,2.50
2018-07-30T20:11:53.521Z,2.30
2018-07-30T20:14:21.253Z,2.10
2018-07-30T20:16:48.907Z,2.30
2018-07-30T20:19:16.656Z,1.90
2018-07-30T20:21:44.622Z,2.07
2018-07-30T20:24:12.264Z,2.10
2018-07-30T20:26:41.672Z,2.03
2018-07-30T20:29:09.484Z,2.23
2018-07-30T20:31:37.156Z,2.70
2018-07-30T20:34:05.524Z,2.93
2018-07-30T20:36:33.151Z,3.23
2018-07-30T20:39:00.810Z,2.80
2018-07-30T20:41:28.804Z,2.43
2018-07-30T20:43:56.788Z,2.97
2018-07-30T20:46:24.448Z,2.83
2018-07-30T20:48:52.141Z,2.40
2018-07-30T20:51:19.966Z,2.53
2018-07-30T20:53:47.584Z,2.77
2018-07-30T20:56:15.563Z,2.27
2018-07-30T20:58:43.280Z,2.60
2018-07-30T21:01:10.925Z,2.30
2018-07-30T21:03:38.600Z,2.47
2018-07-30T21:06:06.209Z,2.23
2018-07-30T21:08:34.068Z,2.47
2018-07-30T21:11:01.728Z,2.73
2018-07-30T21:13:29.480Z,2.27
2018-07-30T21:15:58.296Z,2.43
2018-07-30T21:18:25.938Z,2.80
2018-07-30T21:20:53.715Z,2.33
2018-07-30T21:23:21.748Z,2.60
2018-07-30T21:25:49.449Z,3.00
2018-07-30T21:28:16.809Z,2.40
2018-07-30T21:30:44.609Z,2.60
2018-07-30T21:33:12.280Z,2.67
2018-07-30T21:35:39.922Z,2.53
2018-07-30T21:38:07.781Z,2.40
2018-07-30T21:40:35.484Z,2.30
2018-07-30T21:43:03.326Z,2.07
2018-07-30T21:45:31.425Z,2.50
2018-07-30T21:47:59.056Z,2.33
2018-07-30T21:50:26.717Z,2.23
2018-07-30T21:52:54.733Z,2.67
2018-07-30T21:55:22.408Z,2.47
2018-07-30T21:57:50.174Z,2.57
2018-07-30T22:00:24.492Z,2.27
2018-07-30T22:02:53.749Z,2.50
2018-07-30T22:05:21.713Z,2.23
2018-07-30T22:07:49.419Z,2.47
2018-07-30T22:10:17.123Z,2.33
2018-07-30T22:12:44.902Z,2.60
2018-07-30T22:15:12.635Z,2.43
2018-07-30T22:17:40.341Z,2.37
2018-07-30T22:20:08.106Z,2.30
2018-07-30T22:22:36.841Z,2.57
2018-07-30T22:25:04.680Z,2.33
2018-07-30T22:27:32.569Z,2.70
2018-07-30T22:30:00.972Z,2.23
2018-07-30T22:32:28.854Z,2.53
2018-07-30T22:34:56.741Z,2.60
2018-07-30T22:37:24.440Z,2.47
2018-07-30T22:39:52.149Z,2.40
2018-07-30T22:42:19.828Z,2.83
2018-07-30T22:44:47.465Z,2.30
2018-07-30T22:47:15.236Z,2.20
2018-07-30T22:49:42.878Z,2.60
2018-07-30T22:52:10.564Z,2.60
2018-07-30T22:54:38.328Z,2.60
2018-07-30T22:57:06.114Z,2.50
2018-07-30T22:59:33.781Z,2.30
2018-07-30T23:02:01.516Z,2.53
2018-07-30T23:04:29.268Z,2.30
2018-07-30T23:06:57.356Z,2.30
2018-07-30T23:09:25.016Z,2.60
2018-07-30T23:11:52.682Z,2.77
2018-07-30T23:14:20.522Z,2.60
2018-07-30T23:16:48.212Z,2.50
2018-07-30T23:19:15.918Z,2.47
2018-07-30T23:21:43.885Z,2.33
2018-07-30T23:24:11.594Z,2.50
2018-07-30T23:26:39.258Z,2.53
2018-07-30T23:29:07.321Z,2.63
2018-07-30T23:31:35.202Z,2.43
2018-07-30T23:34:02.878Z,2.60
2018-07-30T23:36:30.862Z,2.30
2018-07-30T23:38:58.577Z,3.03
2018-07-30T23:41:31.559Z,2.40
2018-07-30T23:43:59.314Z,2.50
2018-07-30T23:46:39.269Z,2.70
2018-07-30T23:49:08.701Z,2.57
2018-07-30T23:52:14.536Z,2.40
2018-07-30T23:54:49.897Z,2.60
2018-07-30T23:57:56.145Z,2.77
